Time;durP1;ratioP1;P1;durP2;ratioP2;P2;SDS_P1;SDS_P2;PMS_P1;PMS_P2;Temp;Humidity;BMP_temperature;BMP_pressure;BME280_temperature;BME280_humidity;BME280_pressure;Samples;Min_cycle;Max_cycle;Signal;HPM_P1;HPM_P2
2023/03/07 00:02:21;;;;;;;70.25;58.40;;;7.90;99.90;;;;;;5154470;28;20114;-68
2023/03/07 00:04:52;;;;;;;63.95;53.15;;;8.40;99.90;;;;;;5144268;28;20023;-68
2023/03/07 00:07:23;;;;;;;63.10;53.50;;;8.40;99.90;;;;;;5145474;28;20035;-68
2023/03/07 00:09:54;;;;;;;63.72;54.38;;;8.50;99.90;;;;;;5145424;28;20607;-68
2023/03/07 00:12:25;;;;;;;63.08;54.40;;;8.50;99.90;;;;;;5145499;28;20479;-68
2023/03/07 00:14:56;;;;;;;62.67;55.70;;;8.40;99.90;;;;;;5145256;28;20054;-68
2023/03/07 00:17:26;;;;;;;64.97;55.47;;;8.60;99.90;;;;;;5145249;28;20084;-68
2023/03/07 00:19:57;;;;;;;61.80;53.47;;;8.50;99.90;;;;;;5143885;28;20114;-68
2023/03/07 00:22:29;;;;;;;64.10;54.58;;;8.50;99.90;;;;;;5144917;28;20117;-68
2023/03/07 00:25:00;;;;;;;60.05;51.05;;;8.50;99.90;;;;;;5145123;28;20085;-68
2023/03/07 00:27:31;;;;;;;63.13;54.03;;;8.00;99.90;;;;;;5145136;28;20030;-68
2023/03/07 00:30:03;;;;;;;65.13;54.78;;;8.50;99.90;;;;;;5145085;28;20077;-68
2023/03/07 00:32:34;;;;;;;60.95;52.95;;;8.20;99.90;;;;;;5145058;28;20026;-68
2023/03/07 00:35:06;;;;;;;63.55;54.08;;;8.20;99.90;;;;;;5145021;28;20069;-68
2023/03/07 00:37:37;;;;;;;64.85;53.33;;;8.30;99.90;;;;;;5145012;28;20506;-68
2023/03/07 00:40:09;;;;;;;64.65;53.13;;;8.30;99.90;;;;;;5143624;28;20483;-68
2023/03/07 00:42:39;;;;;;;70.68;54.58;;;8.40;99.90;;;;;;5145031;28;20034;-68
2023/03/07 00:45:12;;;;;;;71.35;57.80;;;8.80;99.90;;;;;;5145075;28;20070;-68
2023/03/07 00:47:43;;;;;;;67.07;53.75;;;8.70;99.90;;;;;;5145033;28;20097;-68
2023/03/07 00:50:14;;;;;;;63.15;53.22;;;8.60;99.90;;;;;;5145218;28;20058;-68
2023/03/07 00:52:44;;;;;;;69.80;55.58;;;8.70;99.90;;;;;;5144792;28;20054;-67
2023/03/07 00:55:15;;;;;;;72.00;54.15;;;8.90;99.90;;;;;;5145094;28;20468;-68
2023/03/07 00:57:46;;;;;;;71.85;56.38;;;8.90;99.90;;;;;;5144909;28;20030;-68
2023/03/07 01:00:17;;;;;;;71.43;53.45;;;9.00;99.90;;;;;;5144673;28;20431;-68
2023/03/07 01:02:50;;;;;;;68.88;53.67;;;8.70;99.90;;;;;;5144877;28;20094;-68
2023/03/07 01:05:21;;;;;;;64.18;52.25;;;9.10;99.90;;;;;;5144732;28;20033;-68
2023/03/07 01:07:52;;;;;;;62.30;53.80;;;9.00;99.90;;;;;;5144695;28;20026;-68
2023/03/07 01:10:23;;;;;;;66.60;52.90;;;9.10;99.90;;;;;;5144786;28;20499;-68
2023/03/07 01:12:53;;;;;;;67.25;53.17;;;9.00;99.90;;;;;;5145247;28;20065;-68
2023/03/07 01:15:24;;;;;;;69.15;53.47;;;9.00;99.90;;;;;;5147505;28;20035;-68
2023/03/07 01:17:56;;;;;;;66.07;53.03;;;9.00;99.90;;;;;;5153568;28;20466;-68
2023/03/07 01:20:31;;;;;;;61.03;51.35;;;9.00;99.90;;;;;;5152942;28;20034;-68
2023/03/07 01:23:03;;;;;;;67.38;53.80;;;8.90;99.90;;;;;;5147361;28;20650;-67
2023/03/07 01:25:39;;;;;;;60.95;50.78;;;8.90;99.90;;;;;;5147219;28;20022;-68
2023/03/07 01:28:13;;;;;;;62.17;52.00;;;9.10;99.90;;;;;;5148517;28;20030;-68
2023/03/07 01:30:44;;;;;;;69.22;61.65;;;8.70;99.90;;;;;;5148367;28;20491;-68
2023/03/07 01:33:15;;;;;;;63.70;53.22;;;8.90;99.90;;;;;;5148433;28;20102;-68
2023/03/07 01:35:45;;;;;;;63.55;49.72;;;8.80;99.90;;;;;;5148344;28;20157;-68
2023/03/07 01:38:16;;;;;;;62.35;51.75;;;8.80;99.90;;;;;;5148279;28;20415;-68
2023/03/07 01:40:47;;;;;;;58.88;49.80;;;8.90;99.90;;;;;;5148066;28;20071;-68
2023/03/07 01:43:26;;;;;;;58.70;48.50;;;8.90;99.90;;;;;;5148131;28;20038;-68
2023/03/07 01:46:16;;;;;;;53.28;47.55;;;8.70;99.90;;;;;;5147973;28;20027;-68
2023/03/07 01:48:53;;;;;;;54.97;49.22;;;8.90;99.90;;;;;;5148119;28;20031;-68
2023/03/07 01:51:25;;;;;;;49.20;43.80;;;9.00;99.90;;;;;;5147782;28;20380;-68
2023/03/07 01:53:57;;;;;;;48.03;42.95;;;9.00;99.90;;;;;;5148123;28;20422;-68
2023/03/07 01:56:29;;;;;;;50.78;44.10;;;8.90;99.90;;;;;;5147912;28;20373;-68
2023/03/07 01:59:01;;;;;;;46.63;41.55;;;8.80;99.90;;;;;;5148001;28;20363;-68
2023/03/07 02:01:33;;;;;;;50.05;44.78;;;9.10;99.90;;;;;;5147751;28;20049;-68
2023/03/07 02:04:16;;;;;;;47.13;42.38;;;9.00;99.90;;;;;;5147990;28;20340;-68
2023/03/07 02:06:48;;;;;;;48.05;43.03;;;8.90;99.90;;;;;;5153359;28;20035;-68
2023/03/07 02:09:21;;;;;;;44.33;39.75;;;9.00;99.90;;;;;;5160601;28;20786;-68
2023/03/07 02:11:52;;;;;;;44.38;40.05;;;9.20;99.90;;;;;;5167939;28;20409;-68
2023/03/07 02:14:23;;;;;;;45.22;40.78;;;8.90;99.90;;;;;;5167733;28;20050;-68
2023/03/07 02:16:54;;;;;;;42.17;37.88;;;9.00;99.90;;;;;;5167682;28;20069;-68
2023/03/07 02:19:57;;;;;;;44.83;40.50;;;9.00;99.90;;;;;;5167658;28;20045;-68
2023/03/07 02:22:29;;;;;;;44.47;40.17;;;9.00;99.90;;;;;;5167301;28;20046;-68
2023/03/07 02:25:02;;;;;;;44.28;40.08;;;9.10;99.90;;;;;;5166176;28;20042;-68
2023/03/07 02:27:36;;;;;;;41.50;37.42;;;9.10;99.90;;;;;;5167435;28;20062;-68
2023/03/07 02:30:09;;;;;;;44.60;40.20;;;9.00;99.90;;;;;;5167387;28;20028;-68
2023/03/07 02:32:40;;;;;;;43.72;39.33;;;8.80;99.90;;;;;;5167290;28;20065;-68
2023/03/07 02:35:31;;;;;;;43.00;38.72;;;8.40;99.90;;;;;;5165998;28;20046;-68
2023/03/07 02:38:04;;;;;;;44.65;40.55;;;8.70;99.90;;;;;;5167119;28;20606;-68
2023/03/07 02:40:35;;;;;;;43.10;39.03;;;8.90;99.90;;;;;;5167164;28;20066;-68
2023/03/07 02:43:08;;;;;;;45.47;41.08;;;8.80;99.90;;;;;;5167242;28;20038;-68
2023/03/07 02:45:39;;;;;;;43.88;39.47;;;8.70;99.90;;;;;;5167079;28;20077;-68
2023/03/07 02:48:10;;;;;;;43.20;39.47;;;8.90;99.90;;;;;;5165880;28;20034;-68
2023/03/07 02:50:40;;;;;;;45.08;40.97;;;8.60;99.90;;;;;;5166880;28;20022;-68
2023/03/07 02:53:11;;;;;;;44.85;40.42;;;8.80;99.90;;;;;;5166877;28;20046;-68
2023/03/07 02:55:42;;;;;;;47.15;42.78;;;8.80;99.90;;;;;;5166984;28;20023;-68
2023/03/07 02:58:13;;;;;;;47.67;43.08;;;8.90;99.90;;;;;;5166931;28;20066;-68
2023/03/07 03:00:44;;;;;;;46.83;42.42;;;9.00;99.90;;;;;;5166783;28;20048;-68
2023/03/07 03:03:15;;;;;;;45.65;41.30;;;9.00;99.90;;;;;;5166781;28;20529;-68
2023/03/07 03:05:45;;;;;;;53.53;48.78;;;9.00;99.90;;;;;;5166749;28;20022;-68
2023/03/07 03:08:16;;;;;;;49.50;44.78;;;8.90;99.90;;;;;;5166717;28;20033;-68
2023/03/07 03:10:52;;;;;;;58.42;52.70;;;9.00;99.90;;;;;;5166617;28;20011;-68
2023/03/07 03:13:23;;;;;;;50.42;45.53;;;9.10;99.90;;;;;;5166763;28;20045;-68
2023/03/07 03:15:55;;;;;;;48.58;43.78;;;9.10;99.90;;;;;;5165375;28;20022;-68
2023/03/07 03:18:27;;;;;;;51.47;46.50;;;9.20;99.90;;;;;;5166417;28;20034;-68
2023/03/07 03:20:58;;;;;;;49.17;44.50;;;9.20;99.90;;;;;;5166296;28;20046;-68
2023/03/07 03:23:29;;;;;;;50.45;45.53;;;9.10;99.90;;;;;;5165046;28;20026;-68
2023/03/07 03:26:04;;;;;;;51.42;46.47;;;9.10;99.90;;;;;;5166316;28;20030;-68
2023/03/07 03:28:35;;;;;;;49.25;44.50;;;9.20;99.90;;;;;;5166321;28;20066;-68
2023/03/07 03:31:13;;;;;;;50.53;45.45;;;9.20;99.90;;;;;;5166252;28;20395;-68
2023/03/07 03:33:44;;;;;;;51.25;46.08;;;9.00;99.90;;;;;;5166257;28;20088;-68
2023/03/07 03:36:16;;;;;;;47.35;42.65;;;9.00;99.90;;;;;;5165754;28;20026;-68
2023/03/07 03:38:47;;;;;;;50.22;45.03;;;9.20;99.90;;;;;;5162830;28;20030;-68
2023/03/07 03:41:18;;;;;;;48.92;44.13;;;9.00;99.90;;;;;;5147744;28;20035;-68
2023/03/07 03:43:49;;;;;;;48.05;43.47;;;9.00;99.90;;;;;;5145809;28;20098;-68
2023/03/07 03:46:19;;;;;;;50.90;46.10;;;8.90;99.90;;;;;;5145848;28;20026;-68
2023/03/07 03:48:54;;;;;;;52.15;47.15;;;9.00;99.90;;;;;;5145838;28;20019;-68
2023/03/07 03:51:26;;;;;;;58.33;53.10;;;9.00;99.90;;;;;;5145461;28;20141;-68
2023/03/07 03:53:57;;;;;;;52.65;47.47;;;9.00;99.90;;;;;;5145583;28;20329;-68
2023/03/07 03:56:28;;;;;;;52.53;47.63;;;8.90;99.90;;;;;;5145648;28;20090;-68
2023/03/07 03:58:59;;;;;;;49.90;44.90;;;8.90;99.90;;;;;;5145489;28;20054;-67
2023/03/07 04:01:30;;;;;;;52.13;47.00;;;8.90;99.90;;;;;;5145567;28;20070;-68
2023/03/07 04:04:01;;;;;;;70.13;63.60;;;8.80;99.90;;;;;;5145490;28;20029;-68
2023/03/07 04:06:33;;;;;;;50.92;45.88;;;8.90;99.90;;;;;;5145526;28;20458;-67
2023/03/07 04:09:04;;;;;;;52.90;47.78;;;8.90;99.90;;;;;;5145432;28;20027;-67
2023/03/07 04:11:35;;;;;;;54.00;48.33;;;8.90;99.90;;;;;;5145432;28;20086;-68
2023/03/07 04:14:06;;;;;;;51.75;46.58;;;8.90;99.90;;;;;;5145482;28;20027;-68
2023/03/07 04:16:37;;;;;;;70.60;64.57;;;8.80;99.90;;;;;;5145299;28;20089;-68
2023/03/07 04:19:11;;;;;;;48.88;43.72;;;8.90;99.90;;;;;;5145212;28;20023;-69
2023/03/07 04:21:42;;;;;;;100.10;92.47;;;8.90;99.90;;;;;;5145066;28;20097;-67
2023/03/07 04:24:13;;;;;;;49.72;44.50;;;8.90;99.90;;;;;;5145470;28;20431;-67
2023/03/07 04:26:44;;;;;;;45.97;41.00;;;8.70;99.90;;;;;;5145166;28;20090;-67
2023/03/07 04:29:15;;;;;;;48.85;43.63;;;8.90;99.90;;;;;;5145199;28;20046;-67
2023/03/07 04:31:46;;;;;;;51.03;45.78;;;8.90;99.90;;;;;;5145164;28;20027;-67
2023/03/07 04:34:17;;;;;;;50.22;45.10;;;8.90;99.90;;;;;;5145197;28;20058;-67
2023/03/07 04:36:47;;;;;;;49.53;44.50;;;8.90;99.90;;;;;;5144008;28;20034;-68
2023/03/07 04:39:18;;;;;;;44.53;40.08;;;8.90;99.90;;;;;;5145237;28;20109;-67
2023/03/07 04:41:49;;;;;;;49.75;45.13;;;8.90;99.90;;;;;;5145010;28;20549;-67
2023/03/07 04:44:20;;;;;;;46.97;42.28;;;8.90;99.90;;;;;;5144885;28;20093;-67
2023/03/07 04:46:51;;;;;;;49.35;44.47;;;8.90;99.90;;;;;;5145477;28;20369;-67
2023/03/07 04:49:21;;;;;;;46.17;41.47;;;8.90;99.90;;;;;;5153379;28;20029;-68
2023/03/07 04:51:52;;;;;;;45.75;41.35;;;9.00;99.90;;;;;;5164584;28;20050;-68
2023/03/07 04:54:23;;;;;;;47.63;42.97;;;9.00;99.90;;;;;;5165111;28;20026;-67
2023/03/07 04:56:54;;;;;;;47.30;43.13;;;8.90;99.90;;;;;;5164983;28;20026;-67
2023/03/07 04:59:25;;;;;;;46.58;42.30;;;9.10;99.90;;;;;;5164919;28;20093;-67
2023/03/07 05:01:56;;;;;;;42.47;38.35;;;9.00;99.90;;;;;;5164753;28;20088;-67
2023/03/07 05:04:26;;;;;;;50.60;46.05;;;9.10;99.90;;;;;;5164807;28;20069;-67
2023/03/07 05:06:57;;;;;;;49.90;45.10;;;9.00;99.90;;;;;;5164841;28;20439;-68
2023/03/07 05:09:28;;;;;;;45.97;41.63;;;9.20;99.90;;;;;;5164855;28;20499;-67
2023/03/07 05:11:59;;;;;;;46.75;42.33;;;9.20;99.90;;;;;;5164817;28;20406;-67
2023/03/07 05:14:30;;;;;;;47.67;43.35;;;9.20;99.90;;;;;;5164827;28;20030;-67
2023/03/07 05:17:01;;;;;;;49.25;44.88;;;9.30;99.90;;;;;;5164793;28;20031;-67
2023/03/07 05:19:32;;;;;;;51.72;47.28;;;9.30;99.90;;;;;;5164742;28;20057;-67
2023/03/07 05:22:03;;;;;;;45.58;41.42;;;9.40;99.90;;;;;;5163189;28;20055;-67
2023/03/07 05:24:33;;;;;;;42.55;38.63;;;9.50;99.90;;;;;;5164658;28;20020;-67
2023/03/07 05:27:05;;;;;;;43.97;39.80;;;9.50;99.90;;;;;;5164517;28;20030;-67
2023/03/07 05:29:35;;;;;;;46.35;42.22;;;9.70;99.90;;;;;;5164588;28;20020;-68
2023/03/07 05:32:06;;;;;;;42.35;38.45;;;9.60;99.90;;;;;;5164554;28;20073;-68
2023/03/07 05:34:37;;;;;;;43.22;39.25;;;9.80;99.90;;;;;;5164598;28;20150;-68
2023/03/07 05:37:08;;;;;;;63.75;58.83;;;9.70;99.90;;;;;;5164512;28;20120;-68
2023/03/07 05:39:39;;;;;;;41.63;38.15;;;9.90;99.90;;;;;;5164594;28;20097;-67
2023/03/07 05:42:10;;;;;;;44.25;40.28;;;9.90;99.90;;;;;;5164434;28;20144;-67
2023/03/07 05:44:41;;;;;;;41.53;37.75;;;9.90;99.90;;;;;;5164575;28;20022;-67
2023/03/07 05:47:12;;;;;;;40.25;36.28;;;10.00;99.90;;;;;;5164473;28;20674;-67
2023/03/07 05:49:43;;;;;;;41.88;37.88;;;10.00;99.90;;;;;;5164541;28;20025;-68
2023/03/07 05:52:14;;;;;;;39.83;36.20;;;10.10;99.90;;;;;;5164276;28;20050;-68
2023/03/07 05:54:45;;;;;;;40.72;37.17;;;10.10;99.90;;;;;;5164607;28;20062;-68
2023/03/07 05:57:16;;;;;;;40.25;36.63;;;10.20;99.90;;;;;;5164295;28;20459;-68
2023/03/07 05:59:47;;;;;;;40.85;37.08;;;10.00;99.90;;;;;;5164672;28;20033;-68
2023/03/07 06:02:18;;;;;;;38.45;35.05;;;10.10;99.90;;;;;;5168039;28;20119;-68
2023/03/07 06:04:48;;;;;;;45.28;41.13;;;10.10;99.90;;;;;;5167758;28;20356;-68
2023/03/07 06:07:19;;;;;;;38.15;34.67;;;10.10;99.90;;;;;;5167871;28;20089;-67
2023/03/07 06:09:50;;;;;;;39.63;35.85;;;10.20;99.90;;;;;;5167974;28;20015;-68
2023/03/07 06:12:21;;;;;;;37.60;34.10;;;10.20;99.90;;;;;;5167766;28;20113;-67
2023/03/07 06:14:52;;;;;;;44.30;40.30;;;10.30;99.90;;;;;;5167833;28;20022;-68
2023/03/07 06:17:23;;;;;;;40.42;36.58;;;10.20;99.90;;;;;;5167692;28;20031;-68
2023/03/07 06:19:53;;;;;;;36.67;32.47;;;10.30;99.90;;;;;;5167718;28;20106;-68
2023/03/07 06:22:24;;;;;;;37.70;34.30;;;10.50;99.90;;;;;;5167343;28;20070;-68
2023/03/07 06:24:55;;;;;;;39.55;35.72;;;10.50;99.90;;;;;;5167670;28;20039;-69
2023/03/07 06:27:26;;;;;;;39.03;35.42;;;10.50;99.90;;;;;;5167287;28;20075;-68
2023/03/07 06:29:57;;;;;;;46.80;42.33;;;10.50;99.90;;;;;;5167369;28;20374;-68
2023/03/07 06:32:29;;;;;;;35.05;31.85;;;10.50;99.90;;;;;;5166090;28;20093;-68
2023/03/07 06:35:00;;;;;;;37.28;33.97;;;10.70;99.90;;;;;;5167477;28;20037;-68
2023/03/07 06:37:31;;;;;;;34.25;31.20;;;10.60;99.90;;;;;;5167383;28;20026;-68
2023/03/07 06:40:05;;;;;;;35.22;31.85;;;10.70;99.90;;;;;;5167224;28;20081;-68
2023/03/07 06:42:36;;;;;;;36.35;32.50;;;10.80;99.90;;;;;;5167072;28;20038;-68
2023/03/07 06:45:07;;;;;;;35.85;32.47;;;10.90;99.90;;;;;;5166003;28;20035;-68
2023/03/07 06:47:38;;;;;;;33.80;30.77;;;10.90;99.90;;;;;;5167040;28;20034;-68
2023/03/07 06:50:10;;;;;;;34.92;31.85;;;10.90;99.90;;;;;;5166999;28;20470;-69
2023/03/07 06:52:41;;;;;;;32.83;30.02;;;10.90;99.90;;;;;;5166734;28;20513;-69
2023/03/07 06:55:12;;;;;;;33.92;30.83;;;10.90;99.90;;;;;;5166934;28;20023;-68
2023/03/07 06:57:43;;;;;;;33.45;30.00;;;10.90;99.90;;;;;;5156217;28;20042;-68
2023/03/07 07:00:15;;;;;;;35.40;32.05;;;11.00;99.90;;;;;;5146681;28;20022;-68
2023/03/07 07:02:45;;;;;;;31.98;29.17;;;11.00;99.90;;;;;;5145535;28;20035;-68
2023/03/07 07:05:16;;;;;;;33.33;30.40;;;11.20;99.90;;;;;;5146945;28;20030;-69
2023/03/07 07:07:48;;;;;;;34.13;31.27;;;11.30;99.90;;;;;;5146703;28;20030;-69
2023/03/07 07:10:18;;;;;;;33.20;30.45;;;11.30;99.90;;;;;;5146248;28;20027;-68
2023/03/07 07:12:53;;;;;;;35.40;32.30;;;11.20;99.90;;;;;;5146522;28;20038;-69
2023/03/07 07:15:24;;;;;;;36.58;33.28;;;11.30;99.90;;;;;;5146670;28;20027;-67
2023/03/07 07:17:55;;;;;;;35.05;32.05;;;11.50;99.90;;;;;;5146691;28;20031;-67
2023/03/07 07:20:27;;;;;;;33.95;31.15;;;11.60;99.90;;;;;;5146248;28;20025;-67
2023/03/07 07:22:58;;;;;;;34.78;32.08;;;11.60;99.90;;;;;;5146493;28;20438;-67
2023/03/07 07:25:28;;;;;;;36.03;32.97;;;11.80;99.90;;;;;;5146140;28;20724;-68
2023/03/07 07:27:59;;;;;;;36.58;33.65;;;11.90;99.90;;;;;;5160368;28;20109;-67
2023/03/07 07:30:30;;;;;;;39.05;35.75;;;12.10;99.90;;;;;;5166546;28;20042;-67
2023/03/07 07:33:01;;;;;;;39.03;35.83;;;11.90;99.90;;;;;;5146585;28;20106;-67
2023/03/07 07:35:32;;;;;;;40.08;36.78;;;12.10;99.90;;;;;;5146253;28;20019;-67
2023/03/07 07:38:03;;;;;;;39.22;36.03;;;12.30;99.90;;;;;;5144930;28;20121;-67
2023/03/07 07:40:33;;;;;;;41.10;38.00;;;12.50;99.90;;;;;;5145777;28;20491;-65
2023/03/07 07:43:05;;;;;;;45.08;41.47;;;12.50;99.90;;;;;;5145803;28;20023;-65
2023/03/07 07:45:36;;;;;;;43.03;39.70;;;12.60;99.90;;;;;;5144648;28;20045;-67
2023/03/07 07:48:08;;;;;;;44.05;40.38;;;12.70;99.90;;;;;;5146009;28;20031;-65
2023/03/07 07:50:38;;;;;;;41.33;38.38;;;12.70;99.90;;;;;;5145644;28;20018;-65
2023/03/07 07:53:09;;;;;;;42.58;39.50;;;12.80;99.90;;;;;;5145333;28;20053;-66
2023/03/07 07:55:40;;;;;;;39.40;36.45;;;12.80;99.90;;;;;;5156749;28;20050;-65
2023/03/07 07:58:11;;;;;;;40.53;37.85;;;12.80;99.90;;;;;;5145474;28;20027;-65
2023/03/07 08:00:42;;;;;;;46.50;42.95;;;12.80;99.90;;;;;;5155257;28;20129;-64
2023/03/07 08:03:13;;;;;;;41.03;37.90;;;12.80;99.90;;;;;;5164998;28;20034;-65
2023/03/07 08:05:47;;;;;;;40.53;37.47;;;12.90;99.90;;;;;;5164932;28;20033;-65
2023/03/07 08:08:18;;;;;;;43.22;40.17;;;13.00;99.90;;;;;;5147284;28;20069;-65
2023/03/07 08:10:49;;;;;;;38.22;35.42;;;13.00;99.90;;;;;;5144676;28;20031;-65
2023/03/07 08:13:20;;;;;;;39.78;36.70;;;13.10;99.90;;;;;;5145004;28;20421;-64
2023/03/07 08:15:51;;;;;;;37.78;34.85;;;13.20;99.90;;;;;;5143790;28;20050;-65
2023/03/07 08:18:22;;;;;;;39.50;36.83;;;13.10;99.90;;;;;;5145309;28;20482;-65
2023/03/07 08:20:53;;;;;;;36.65;34.08;;;13.20;99.90;;;;;;5145946;28;20113;-66
2023/03/07 08:23:23;;;;;;;39.30;36.45;;;13.20;99.90;;;;;;5165108;28;20125;-65
2023/03/07 08:25:54;;;;;;;41.67;38.53;;;12.90;99.90;;;;;;5164444;28;20034;-65
2023/03/07 08:28:25;;;;;;;66.18;61.75;;;13.00;99.90;;;;;;5164586;28;20030;-65
2023/03/07 08:30:56;;;;;;;40.72;37.85;;;12.90;99.90;;;;;;5165392;28;20470;-66
2023/03/07 08:33:27;;;;;;;54.63;50.83;;;13.00;99.90;;;;;;5164074;28;20029;-65
2023/03/07 08:35:58;;;;;;;54.17;50.58;;;13.00;99.90;;;;;;5165035;28;20096;-66
2023/03/07 08:38:30;;;;;;;36.67;33.88;;;13.10;99.90;;;;;;5164362;28;20485;-66
2023/03/07 08:41:05;;;;;;;36.33;33.80;;;13.10;99.90;;;;;;5164490;28;20030;-66
2023/03/07 08:43:38;;;;;;;36.17;33.38;;;13.20;99.90;;;;;;5165138;28;20030;-65
2023/03/07 08:46:08;;;;;;;36.67;33.67;;;13.30;99.90;;;;;;5165027;28;20026;-65
2023/03/07 08:48:39;;;;;;;34.80;32.05;;;13.30;99.90;;;;;;5165152;28;20092;-66
2023/03/07 08:51:16;;;;;;;38.13;35.25;;;13.40;99.90;;;;;;5164689;28;20054;-65
2023/03/07 08:53:47;;;;;;;40.72;37.72;;;13.40;99.90;;;;;;5165025;28;20410;-65
2023/03/07 08:56:18;;;;;;;39.15;35.97;;;13.30;99.90;;;;;;5157489;28;20034;-65
2023/03/07 08:58:52;;;;;;;35.33;32.67;;;13.50;99.90;;;;;;5151592;28;20505;-64
2023/03/07 09:01:23;;;;;;;34.85;32.05;;;13.60;99.90;;;;;;5144661;28;20114;-65
2023/03/07 09:03:54;;;;;;;36.70;34.00;;;13.80;99.90;;;;;;5150184;28;20109;-65
2023/03/07 09:06:25;;;;;;;37.22;34.38;;;13.80;99.90;;;;;;5164402;28;20023;-65
2023/03/07 09:08:56;;;;;;;35.70;33.00;;;13.90;99.90;;;;;;5155172;28;20069;-65
2023/03/07 09:11:27;;;;;;;37.60;34.88;;;13.90;99.90;;;;;;5144534;28;20038;-65
2023/03/07 09:13:58;;;;;;;40.30;37.60;;;13.90;99.90;;;;;;5144774;28;20027;-65
2023/03/07 09:16:28;;;;;;;39.47;36.85;;;13.90;99.90;;;;;;5144820;28;20026;-65
2023/03/07 09:19:00;;;;;;;38.47;35.92;;;14.10;99.90;;;;;;5143484;28;20034;-65
2023/03/07 09:21:31;;;;;;;40.08;37.13;;;14.00;99.90;;;;;;5144521;28;20122;-65
2023/03/07 09:24:02;;;;;;;43.25;40.30;;;13.80;99.90;;;;;;5144556;28;20027;-65
2023/03/07 09:26:33;;;;;;;41.08;38.00;;;13.70;99.90;;;;;;5144583;28;20031;-65
2023/03/07 09:29:04;;;;;;;39.30;36.30;;;13.70;99.90;;;;;;5144784;28;20031;-65
2023/03/07 09:31:35;;;;;;;35.17;32.55;;;13.70;99.90;;;;;;5144569;28;20034;-65
2023/03/07 09:34:06;;;;;;;30.80;28.50;;;13.90;99.90;;;;;;5145483;28;20030;-65
2023/03/07 09:36:37;;;;;;;35.13;32.65;;;13.90;99.90;;;;;;5148407;28;20035;-65
2023/03/07 09:39:13;;;;;;;35.05;32.55;;;13.70;99.90;;;;;;5148350;28;20027;-64
2023/03/07 09:42:05;;;;;;;34.75;31.15;;;13.70;99.90;;;;;;5148509;28;20458;-65
2023/03/07 09:45:01;;;;;;;46.47;43.33;;;13.70;99.90;;;;;;5148441;28;20026;-65
2023/03/07 09:47:44;;;;;;;47.50;44.15;;;13.50;99.90;;;;;;5148250;28;20057;-65
2023/03/07 09:50:49;;;;;;;35.80;33.33;;;13.50;99.90;;;;;;5148158;28;20030;-65
2023/03/07 09:53:40;;;;;;;34.38;31.92;;;13.60;99.90;;;;;;5148080;28;20526;-66
2023/03/07 09:56:25;;;;;;;38.67;36.00;;;13.80;99.90;;;;;;5148092;28;20034;-66
2023/03/07 09:59:08;;;;;;;35.50;32.95;;;13.70;99.90;;;;;;5148217;28;20029;-66
2023/03/07 10:01:43;;;;;;;33.92;31.35;;;13.80;99.90;;;;;;5148082;28;20045;-65
2023/03/07 10:04:20;;;;;;;33.38;30.92;;;14.00;99.90;;;;;;5147883;28;20048;-65
2023/03/07 10:06:54;;;;;;;33.35;30.98;;;14.00;99.90;;;;;;5147866;28;20105;-64
2023/03/07 10:09:25;;;;;;;32.20;29.88;;;14.10;99.90;;;;;;5147773;28;20435;-65
2023/03/07 10:12:10;;;;;;;30.10;27.83;;;14.40;99.90;;;;;;5147819;28;20435;-65
2023/03/07 10:15:11;;;;;;;33.83;31.55;;;14.30;99.90;;;;;;5147873;28;20093;-65
2023/03/07 10:17:50;;;;;;;35.35;32.70;;;14.20;99.90;;;;;;5147620;28;20034;-64
2023/03/07 10:20:47;;;;;;;37.08;34.25;;;14.10;99.90;;;;;;5147350;28;20077;-65
2023/03/07 10:23:46;;;;;;;36.85;34.22;;;14.30;99.90;;;;;;5139472;28;20141;-65
2023/03/07 10:26:32;;;;;;;30.30;28.00;;;14.40;99.90;;;;;;5147496;28;20018;-65
2023/03/07 10:29:14;;;;;;;31.08;28.88;;;14.50;99.90;;;;;;5147519;28;20035;-65
2023/03/07 10:31:55;;;;;;;33.00;30.67;;;14.40;99.90;;;;;;5147422;28;20038;-65
2023/03/07 10:34:28;;;;;;;35.83;33.28;;;14.50;99.90;;;;;;5145952;28;20031;-65
2023/03/07 10:37:16;;;;;;;38.95;35.83;;;14.30;99.90;;;;;;5146074;28;20049;-65
2023/03/07 10:39:51;;;;;;;32.58;30.23;;;14.60;99.90;;;;;;5146060;28;20094;-65
2023/03/07 10:42:26;;;;;;;30.38;28.17;;;14.70;99.90;;;;;;5147129;28;20039;-65
2023/03/07 10:44:57;;;;;;;29.75;27.55;;;14.80;99.90;;;;;;5146747;28;20022;-65
2023/03/07 10:47:28;;;;;;;27.02;25.05;;;15.00;99.90;;;;;;5146321;28;20038;-65
2023/03/07 10:50:21;;;;;;;28.33;26.13;;;15.30;99.90;;;;;;5145405;28;20511;-65
2023/03/07 10:52:56;;;;;;;26.58;24.77;;;15.30;99.90;;;;;;5146735;28;20051;-65
2023/03/07 10:55:43;;;;;;;25.55;23.52;;;15.50;99.90;;;;;;5146866;28;20023;-65
2023/03/07 10:58:19;;;;;;;28.00;26.20;;;15.80;99.90;;;;;;5146975;28;20106;-65
2023/03/07 11:01:05;;;;;;;26.77;24.83;;;15.50;99.90;;;;;;5151690;28;20109;-66
2023/03/07 11:03:54;;;;;;;27.67;25.88;;;15.70;99.90;;;;;;5153250;28;20027;-66
2023/03/07 11:06:31;;;;;;;31.57;29.33;;;15.30;99.90;;;;;;5166818;28;20097;-67
2023/03/07 11:09:22;;;;;;;28.65;26.40;;;15.40;99.90;;;;;;5166665;28;20466;-65
2023/03/07 11:11:58;;;;;;;28.27;26.35;;;15.60;99.90;;;;;;5166789;28;20038;-67
2023/03/07 11:14:29;;;;;;;150.27;140.68;;;15.70;99.90;;;;;;5166722;28;20030;-67
2023/03/07 11:17:01;;;;;;;101.43;95.55;;;15.50;99.90;;;;;;5165344;28;20495;-66
2023/03/07 11:19:35;;;;;;;29.42;27.52;;;15.70;99.90;;;;;;5166429;28;20402;-66
2023/03/07 11:22:15;;;;;;;25.63;24.02;;;15.70;99.90;;;;;;5166117;28;20450;-65
2023/03/07 11:24:51;;;;;;;28.90;27.15;;;15.80;99.90;;;;;;5166370;28;20029;-66
2023/03/07 11:27:29;;;;;;;26.73;24.98;;;15.50;99.90;;;;;;5166428;28;20037;-65
2023/03/07 11:30:25;;;;;;;58.22;54.78;;;15.50;99.90;;;;;;5166309;28;20018;-66
2023/03/07 11:32:59;;;;;;;31.00;29.23;;;15.60;99.90;;;;;;5165128;28;20037;-66
2023/03/07 11:35:59;;;;;;;61.17;57.72;;;15.60;99.90;;;;;;5165655;28;20030;-66
2023/03/07 11:38:40;;;;;;;29.27;27.38;;;15.60;99.90;;;;;;5166311;28;20026;-66
2023/03/07 11:41:25;;;;;;;29.10;27.45;;;15.60;99.90;;;;;;5164583;28;20034;-66
2023/03/07 11:44:29;;;;;;;28.88;27.02;;;16.00;99.90;;;;;;5166225;28;20030;-66
2023/03/07 11:47:15;;;;;;;20.35;19.15;;;15.90;99.90;;;;;;5166104;28;20034;-66
2023/03/07 11:50:14;;;;;;;63.47;60.05;;;16.10;99.90;;;;;;5165902;28;20041;-66
2023/03/07 11:52:56;;;;;;;21.80;20.55;;;15.90;99.90;;;;;;5165856;28;20121;-66
2023/03/07 11:55:45;;;;;;;51.42;48.53;;;16.20;99.90;;;;;;5165912;28;20030;-66
2023/03/07 11:58:18;;;;;;;64.95;61.40;;;15.70;99.90;;;;;;5165768;28;20052;-66
2023/03/07 12:00:58;;;;;;;34.05;32.15;;;15.80;99.90;;;;;;5165795;28;20378;-66
2023/03/07 12:03:56;;;;;;;35.25;33.30;;;16.00;99.90;;;;;;5165711;28;20026;-66
2023/03/07 12:06:48;;;;;;;34.20;32.30;;;15.90;99.90;;;;;;5165635;28;20030;-67
2023/03/07 12:09:40;;;;;;;34.00;32.13;;;16.00;99.90;;;;;;5165817;28;20026;-66
2023/03/07 12:12:27;;;;;;;38.58;36.47;;;16.30;99.90;;;;;;5166023;28;20087;-66
2023/03/07 12:15:22;;;;;;;23.45;22.15;;;16.10;99.90;;;;;;5164647;28;20855;-66
2023/03/07 12:18:10;;;;;;;61.58;58.30;;;15.90;99.90;;;;;;5165728;28;20034;-66
2023/03/07 12:20:59;;;;;;;23.90;22.60;;;15.70;99.90;;;;;;5165299;28;20034;-66
2023/03/07 12:23:58;;;;;;;26.13;24.73;;;15.90;99.90;;;;;;5165517;28;20085;-66
2023/03/07 12:26:41;;;;;;;22.58;21.27;;;16.20;99.90;;;;;;5165461;28;20026;-66
2023/03/07 12:29:30;;;;;;;20.17;19.05;;;16.60;99.90;;;;;;5165375;28;20101;-66
2023/03/07 12:32:09;;;;;;;20.20;19.00;;;16.60;99.90;;;;;;5165370;28;20113;-66
2023/03/07 12:35:04;;;;;;;20.13;18.80;;;16.20;99.90;;;;;;5165331;28;20034;-66
2023/03/07 12:37:49;;;;;;;23.65;22.35;;;16.80;99.90;;;;;;5165241;28;20046;-66
2023/03/07 12:40:44;;;;;;;19.70;18.42;;;16.90;99.90;;;;;;5165335;28;20030;-66
2023/03/07 12:43:34;;;;;;;26.20;24.70;;;16.90;99.90;;;;;;5165407;28;19914;-66
2023/03/07 12:46:22;;;;;;;55.95;52.40;;;16.70;99.90;;;;;;5165130;28;20038;-66
2023/03/07 12:49:12;;;;;;;24.13;22.80;;;16.60;99.90;;;;;;5156328;28;20034;-65
2023/03/07 12:51:52;;;;;;;26.08;24.58;;;16.30;99.90;;;;;;5155753;28;20372;-66
2023/03/07 12:54:29;;;;;;;29.35;27.52;;;16.30;99.90;;;;;;5145098;28;20035;-66
2023/03/07 12:57:42;;;;;;;50.97;48.15;;;16.10;99.90;;;;;;5145030;28;20039;-66
2023/03/07 13:00:18;;;;;;;28.42;25.73;;;16.30;99.90;;;;;;5083336;29;20480;-66
2023/03/07 13:03:01;;;;;;;146.38;138.20;;;16.50;99.90;;;;;;5091187;29;20048;-66
2023/03/07 13:05:36;;;;;;;71.45;67.32;;;16.20;99.90;;;;;;5082983;29;20062;-66
2023/03/07 13:08:09;;;;;;;22.33;20.75;;;16.10;99.90;;;;;;5083186;29;20107;-66
2023/03/07 13:10:44;;;;;;;27.65;25.83;;;16.10;99.90;;;;;;5086492;29;20574;-66